createdAt,value
2019-05-14T00:01:39.303Z,6.00
2019-05-14T00:04:11.401Z,6.00
2019-05-14T00:06:44.362Z,5.90
2019-05-14T00:09:21.771Z,5.90
2019-05-14T00:12:14.768Z,6.00
2019-05-14T00:14:44.726Z,5.90
2019-05-14T00:17:21.457Z,5.90
2019-05-14T00:20:06.366Z,5.90
2019-05-14T00:22:25.234Z,6.00
2019-05-14T00:24:54.600Z,6.00
2019-05-14T00:27:26.005Z,6.10
2019-05-14T00:29:55.914Z,6.10
2019-05-14T00:32:25.656Z,6.10
2019-05-14T00:34:55.039Z,6.10
2019-05-14T00:37:24.452Z,6.10
2019-05-14T00:39:56.324Z,6.10
2019-05-14T00:42:27.066Z,6.10
2019-05-14T00:45:01.229Z,6.10
2019-05-14T00:47:32.422Z,6.00
2019-05-14T00:50:02.229Z,6.00
2019-05-14T00:52:32.026Z,5.90
2019-05-14T00:55:04.790Z,5.90
2019-05-14T00:57:36.982Z,5.90
2019-05-14T01:00:07.681Z,5.90
2019-05-14T01:02:37.062Z,5.90
2019-05-14T01:05:07.408Z,5.80
2019-05-14T01:07:42.267Z,5.80
2019-05-14T01:10:13.245Z,5.80
2019-05-14T01:12:42.597Z,5.80
2019-05-14T01:15:14.239Z,5.80
2019-05-14T01:17:45.742Z,5.80
2019-05-14T01:20:16.677Z,5.90
2019-05-14T01:22:46.098Z,5.90
2019-05-14T01:25:17.134Z,6.10
2019-05-14T01:27:46.512Z,6.10
2019-05-14T01:30:17.652Z,6.20
2019-05-14T01:32:47.038Z,6.20
2019-05-14T01:35:23.919Z,6.20
2019-05-14T01:37:53.357Z,6.30
2019-05-14T01:40:25.824Z,6.30
2019-05-14T01:42:55.189Z,6.40
2019-05-14T01:45:28.123Z,6.40
2019-05-14T01:47:55.924Z,6.50
2019-05-14T01:50:26.431Z,6.50
2019-05-14T01:52:56.957Z,6.40
2019-05-14T01:55:32.253Z,6.40
2019-05-14T01:58:02.334Z,6.30
2019-05-14T02:00:32.341Z,6.40
2019-05-14T02:03:01.990Z,6.30
2019-05-14T02:05:31.673Z,6.30
2019-05-14T02:08:11.978Z,6.30
2019-05-14T02:10:46.724Z,6.20
2019-05-14T02:13:23.405Z,6.20
2019-05-14T02:16:03.152Z,6.20
2019-05-14T02:18:36.394Z,6.10
2019-05-14T02:21:11.851Z,6.00
2019-05-14T02:23:42.866Z,6.10
2019-05-14T02:26:14.970Z,6.00
2019-05-14T02:28:44.293Z,5.90
2019-05-14T02:31:13.996Z,5.80
2019-05-14T02:33:43.373Z,5.80
2019-05-14T02:36:13.216Z,5.80
2019-05-14T02:38:49.083Z,5.90
2019-05-14T02:41:24.282Z,5.80
2019-05-14T02:43:53.975Z,5.80
2019-05-14T02:46:31.010Z,5.80
2019-05-14T02:49:00.354Z,5.70
2019-05-14T02:51:31.499Z,5.60
2019-05-14T02:54:01.057Z,5.60
2019-05-14T02:56:31.669Z,5.60
2019-05-14T02:59:09.622Z,5.50
2019-05-14T03:01:45.964Z,5.60
2019-05-14T03:04:19.735Z,5.50
2019-05-14T03:06:50.077Z,5.50
2019-05-14T03:09:24.171Z,5.50
2019-05-14T03:11:59.464Z,5.60
2019-05-14T03:14:30.138Z,5.50
2019-05-14T03:17:00.381Z,5.50
2019-05-14T03:19:30.103Z,5.50
2019-05-14T03:22:00.379Z,5.60
2019-05-14T03:24:30.032Z,5.60
2019-05-14T03:27:06.177Z,5.50
2019-05-14T03:29:39.358Z,5.50
2019-05-14T03:32:21.801Z,5.40
2019-05-14T03:34:53.022Z,5.30
2019-05-14T03:37:23.411Z,5.10
2019-05-14T03:39:53.003Z,5.00
2019-05-14T03:42:22.448Z,4.90
2019-05-14T03:44:51.835Z,4.80
2019-05-14T03:47:21.447Z,4.80
2019-05-14T03:49:50.935Z,4.70
2019-05-14T03:52:29.192Z,4.80
2019-05-14T03:55:05.061Z,4.90
2019-05-14T03:57:39.942Z,4.90
2019-05-14T04:00:10.467Z,4.80
2019-05-14T04:02:40.794Z,4.80
2019-05-14T04:05:10.261Z,4.80
2019-05-14T04:07:41.157Z,4.70
2019-05-14T04:10:10.969Z,4.80
2019-05-14T04:12:42.520Z,4.80
2019-05-14T04:15:12.455Z,4.90
2019-05-14T04:17:44.069Z,4.80
2019-05-14T04:20:19.833Z,4.80
2019-05-14T04:22:50.307Z,4.90
2019-05-14T04:25:29.491Z,5.00
2019-05-14T04:27:59.730Z,5.00
2019-05-14T04:30:33.387Z,4.90
2019-05-14T04:33:04.850Z,5.00
2019-05-14T04:35:34.794Z,4.90
2019-05-14T04:38:11.020Z,5.00
2019-05-14T04:40:40.399Z,5.00
2019-05-14T04:43:10.382Z,5.10
2019-05-14T04:45:40.179Z,5.20
2019-05-14T04:48:27.007Z,5.10
2019-05-14T04:50:44.353Z,5.20
2019-05-14T04:53:15.317Z,5.30
2019-05-14T04:55:45.085Z,5.40
2019-05-14T04:58:15.949Z,5.40
2019-05-14T05:00:45.464Z,5.30
2019-05-14T05:03:21.905Z,5.30
2019-05-14T05:05:51.325Z,5.30
2019-05-14T05:08:21.928Z,5.20
2019-05-14T05:10:51.301Z,5.20
2019-05-14T05:13:20.943Z,5.20
2019-05-14T05:15:50.676Z,5.30
2019-05-14T05:18:20.422Z,5.30
2019-05-14T05:20:51.675Z,5.30
2019-05-14T05:23:21.177Z,5.40
2019-05-14T05:25:50.613Z,5.50
2019-05-14T05:28:20.828Z,5.50
2019-05-14T05:30:51.682Z,5.50
2019-05-14T05:33:22.875Z,5.60
2019-05-14T05:35:53.951Z,5.70
2019-05-14T05:38:29.163Z,5.70
2019-05-14T05:41:00.394Z,5.80
2019-05-14T05:43:39.299Z,5.90
2019-05-14T05:46:11.885Z,6.00
2019-05-14T05:48:43.900Z,6.10
2019-05-14T05:51:18.731Z,6.30
2019-05-14T05:53:51.829Z,6.70
2019-05-14T05:56:23.584Z,7.50
2019-05-14T05:58:56.201Z,8.70
2019-05-14T06:01:42.104Z,10.10
2019-05-14T06:06:42.262Z,13.10
2019-05-14T06:09:18.528Z,14.20
2019-05-14T06:12:00.791Z,15.40
2019-05-14T06:14:38.254Z,15.70
2019-05-14T06:17:08.584Z,16.30
2019-05-14T06:19:41.665Z,16.90
2019-05-14T06:22:19.535Z,16.70
2019-05-14T06:24:51.239Z,16.90
2019-05-14T06:27:23.070Z,17.70
2019-05-14T06:29:59.644Z,18.00
2019-05-14T06:32:30.832Z,18.60
2019-05-14T06:35:05.051Z,19.70
2019-05-14T06:37:40.364Z,20.40
2019-05-14T06:40:14.028Z,20.90
2019-05-14T06:42:48.550Z,21.50
2019-05-14T06:45:24.164Z,22.70
2019-05-14T06:47:54.549Z,23.30
2019-05-14T06:50:24.766Z,23.70
2019-05-14T06:52:59.994Z,24.00
2019-05-14T06:55:32.112Z,24.60
2019-05-14T06:58:05.087Z,24.30
2019-05-14T07:00:40.661Z,24.80
2019-05-14T07:03:12.197Z,25.10
2019-05-14T07:05:42.680Z,25.70
2019-05-14T07:08:12.922Z,25.90
2019-05-14T07:10:42.341Z,24.60
2019-05-14T07:13:12.289Z,25.00
2019-05-14T07:15:44.052Z,25.20
2019-05-14T07:18:13.435Z,24.40
2019-05-14T07:20:48.107Z,25.00
2019-05-14T07:23:21.685Z,24.90
2019-05-14T07:25:51.344Z,24.90
2019-05-14T07:28:20.836Z,24.90
2019-05-14T07:30:50.289Z,24.70
2019-05-14T07:33:19.968Z,23.50
2019-05-14T07:35:51.151Z,23.40
2019-05-14T07:38:20.582Z,23.30
2019-05-14T07:40:50.557Z,23.70
2019-05-14T07:43:20.481Z,23.80
2019-05-14T07:45:50.870Z,23.60
2019-05-14T07:48:20.336Z,22.70
2019-05-14T07:50:52.135Z,23.50
2019-05-14T07:53:35.208Z,24.60
2019-05-14T07:55:55.046Z,24.70
2019-05-14T07:58:28.234Z,24.80
2019-05-14T08:00:58.564Z,24.30
2019-05-14T08:03:28.918Z,24.20
2019-05-14T08:06:02.174Z,24.50
2019-05-14T08:08:33.459Z,23.70
2019-05-14T08:11:03.133Z,22.50
2019-05-14T08:13:33.307Z,22.50
2019-05-14T08:16:03.838Z,21.80
2019-05-14T08:18:33.165Z,20.80
2019-05-14T08:21:03.162Z,19.40
2019-05-14T08:23:35.883Z,17.80
2019-05-14T08:26:07.990Z,16.80
2019-05-14T08:28:38.497Z,16.00
2019-05-14T08:31:09.613Z,15.10
2019-05-14T08:33:39.919Z,14.40
2019-05-14T08:36:12.956Z,13.70
2019-05-14T08:38:45.451Z,12.80
2019-05-14T08:41:16.201Z,11.70
2019-05-14T08:43:45.627Z,11.20
2019-05-14T08:46:19.094Z,10.90
2019-05-14T08:48:49.764Z,11.60
2019-05-14T08:51:19.461Z,12.10
2019-05-14T08:53:55.853Z,14.30
2019-05-14T08:56:28.158Z,16.10
2019-05-14T08:59:00.527Z,17.70
2019-05-14T09:01:31.329Z,18.90
2019-05-14T09:04:00.820Z,19.30
2019-05-14T09:06:30.334Z,19.20
2019-05-14T09:08:59.932Z,19.80
2019-05-14T09:11:35.418Z,20.50
2019-05-14T09:14:02.646Z,21.00
2019-05-14T09:16:45.949Z,20.10
2019-05-14T09:19:04.555Z,18.20
2019-05-14T09:21:34.333Z,16.50
2019-05-14T09:24:04.549Z,15.50
2019-05-14T09:26:33.895Z,15.80
2019-05-14T09:29:18.515Z,15.80
2019-05-14T09:31:35.493Z,15.20
2019-05-14T09:34:05.161Z,14.40
2019-05-14T09:36:39.298Z,13.90
2019-05-14T09:39:11.948Z,13.70
2019-05-14T09:41:44.050Z,14.50
2019-05-14T09:44:14.065Z,15.90
2019-05-14T09:46:44.016Z,17.10
2019-05-14T09:49:14.195Z,19.40
2019-05-14T09:51:44.632Z,20.40
2019-05-14T09:54:14.407Z,19.20
2019-05-14T09:56:43.780Z,20.50
2019-05-14T09:59:14.322Z,21.60
2019-05-14T10:01:44.682Z,21.40
2019-05-14T10:04:15.624Z,20.30
2019-05-14T10:06:45.512Z,19.40
2019-05-14T10:09:17.257Z,19.40
2019-05-14T10:11:48.627Z,18.40
2019-05-14T10:14:19.191Z,17.50
2019-05-14T10:16:52.826Z,17.60
2019-05-14T10:19:22.490Z,17.40
2019-05-14T10:21:52.178Z,16.20
2019-05-14T10:24:22.700Z,15.70
2019-05-14T10:26:52.649Z,15.40
2019-05-14T10:29:22.154Z,15.20
2019-05-14T10:31:51.636Z,15.00
2019-05-14T10:34:22.078Z,15.00
2019-05-14T10:36:51.908Z,15.00
2019-05-14T10:39:22.372Z,14.80
2019-05-14T10:41:52.656Z,14.10
2019-05-14T10:44:22.768Z,12.80
2019-05-14T10:46:52.281Z,11.70
2019-05-14T10:49:23.651Z,11.00
2019-05-14T10:51:53.633Z,10.70
2019-05-14T10:54:25.874Z,10.50
2019-05-14T10:56:58.772Z,10.50
2019-05-14T10:59:29.203Z,10.50
2019-05-14T11:01:58.800Z,10.70
2019-05-14T11:04:28.728Z,10.90
2019-05-14T11:06:59.347Z,11.10
2019-05-14T11:09:29.192Z,11.20
2019-05-14T11:11:58.595Z,11.40
2019-05-14T11:14:31.749Z,11.60
2019-05-14T11:16:59.757Z,11.90
2019-05-14T11:19:29.616Z,12.30
2019-05-14T11:22:01.597Z,12.70
2019-05-14T11:24:31.665Z,12.80
2019-05-14T11:27:06.482Z,13.20
2019-05-14T11:29:38.678Z,13.50
2019-05-14T11:32:13.267Z,13.50
2019-05-14T11:34:43.105Z,13.30
2019-05-14T11:37:15.436Z,13.30
2019-05-14T11:39:46.017Z,13.50
2019-05-14T11:42:19.923Z,13.70
2019-05-14T11:44:50.247Z,13.60
2019-05-14T11:47:21.763Z,13.50
2019-05-14T11:49:51.498Z,13.40
2019-05-14T11:52:21.123Z,13.40
2019-05-14T11:54:51.541Z,13.30
2019-05-14T11:57:21.021Z,13.20
2019-05-14T11:59:50.413Z,13.20
2019-05-14T12:02:19.876Z,13.10
2019-05-14T12:04:49.260Z,13.20
2019-05-14T12:07:20.347Z,13.30
2019-05-14T12:09:50.166Z,13.30
2019-05-14T12:12:23.174Z,13.50
2019-05-14T12:14:53.892Z,13.70
2019-05-14T12:17:24.682Z,13.80
2019-05-14T12:19:54.771Z,13.70
2019-05-14T12:22:24.363Z,13.20
2019-05-14T12:24:55.267Z,12.90
2019-05-14T12:27:25.562Z,12.90
2019-05-14T12:29:55.019Z,13.00
2019-05-14T12:32:24.441Z,13.10
2019-05-14T12:34:54.153Z,12.90
2019-05-14T12:37:23.919Z,13.00
2019-05-14T12:39:54.168Z,13.00
2019-05-14T12:42:23.545Z,13.00
2019-05-14T12:44:52.921Z,13.10
2019-05-14T12:47:22.594Z,13.20
2019-05-14T12:49:51.972Z,13.40
2019-05-14T12:52:25.728Z,13.50
2019-05-14T12:54:53.285Z,13.70
2019-05-14T12:57:22.669Z,13.70
2019-05-14T12:59:53.383Z,14.00
2019-05-14T13:02:23.173Z,14.10
2019-05-14T13:04:53.265Z,14.20
2019-05-14T13:07:22.664Z,14.20
2019-05-14T13:09:52.941Z,14.20
2019-05-14T13:12:22.325Z,14.20
2019-05-14T13:14:51.997Z,14.20
2019-05-14T13:17:22.071Z,14.40
2019-05-14T13:19:51.986Z,14.30
2019-05-14T13:22:38.399Z,14.10
2019-05-14T13:24:58.145Z,13.90
2019-05-14T13:27:28.774Z,13.80
2019-05-14T13:29:59.181Z,13.80
2019-05-14T13:32:29.404Z,13.70
2019-05-14T13:35:00.787Z,13.80
2019-05-14T13:37:31.859Z,14.00
2019-05-14T13:40:02.877Z,14.00
2019-05-14T13:42:33.672Z,13.60
2019-05-14T13:45:03.357Z,13.00
2019-05-14T13:47:33.404Z,12.60
2019-05-14T13:50:03.178Z,12.20
2019-05-14T13:52:38.698Z,12.10
2019-05-14T13:55:09.822Z,12.40
2019-05-14T13:57:40.003Z,12.80
2019-05-14T14:00:12.077Z,13.10
2019-05-14T14:02:42.866Z,12.90
2019-05-14T14:05:13.637Z,12.90
2019-05-14T14:07:44.935Z,13.20
2019-05-14T14:10:17.566Z,13.40
2019-05-14T14:12:49.657Z,13.70
2019-05-14T14:15:18.535Z,14.10
2019-05-14T14:17:49.607Z,14.50
2019-05-14T14:20:23.586Z,15.00
2019-05-14T14:22:53.205Z,15.10
2019-05-14T14:25:23.785Z,15.50
2019-05-14T14:27:53.567Z,15.60
2019-05-14T14:30:22.953Z,15.30
2019-05-14T14:32:54.111Z,14.90
2019-05-14T14:35:24.698Z,14.90
2019-05-14T14:37:55.795Z,14.60
2019-05-14T14:40:25.215Z,13.60
2019-05-14T14:42:59.055Z,12.60
2019-05-14T14:45:29.201Z,11.90
2019-05-14T14:48:01.710Z,11.50
2019-05-14T14:50:31.209Z,11.40
2019-05-14T14:53:03.037Z,11.20
2019-05-14T14:55:34.118Z,11.20
2019-05-14T14:58:03.764Z,11.00
2019-05-14T15:00:33.869Z,11.00
2019-05-14T15:03:03.709Z,10.90
2019-05-14T15:05:43.401Z,10.80
2019-05-14T15:08:12.766Z,10.80
2019-05-14T15:10:42.444Z,10.80
2019-05-14T15:13:13.509Z,11.10
2019-05-14T15:15:43.391Z,11.30
2019-05-14T15:18:14.161Z,11.50
2019-05-14T15:20:43.600Z,11.70
2019-05-14T15:23:13.394Z,12.10
2019-05-14T15:25:45.419Z,12.50
2019-05-14T15:28:18.912Z,13.00
2019-05-14T15:30:49.830Z,13.20
2019-05-14T15:33:21.295Z,13.20
2019-05-14T15:35:54.297Z,13.20
2019-05-14T15:38:24.161Z,13.10
2019-05-14T15:40:53.613Z,13.10
2019-05-14T15:43:23.065Z,13.00
2019-05-14T15:45:53.439Z,12.70
2019-05-14T15:48:26.573Z,12.40
2019-05-14T15:51:00.081Z,12.30
2019-05-14T15:54:11.144Z,11.70
2019-05-14T15:56:23.026Z,10.70
2019-05-14T15:58:54.498Z,10.00
2019-05-14T16:01:24.836Z,9.70
2019-05-14T16:04:00.333Z,9.30
2019-05-14T16:06:40.365Z,9.30
2019-05-14T16:09:19.505Z,9.30
2019-05-14T16:11:53.451Z,9.40
2019-05-14T16:14:31.605Z,9.50
2019-05-14T16:17:23.682Z,9.60
2019-05-14T16:19:56.665Z,9.60
2019-05-14T16:22:29.267Z,9.50
2019-05-14T16:25:03.097Z,9.60
2019-05-14T16:27:34.863Z,9.60
2019-05-14T16:30:13.705Z,9.70
2019-05-14T16:32:48.654Z,9.90
2019-05-14T16:35:23.685Z,10.20
2019-05-14T16:37:59.751Z,10.40
2019-05-14T16:40:34.926Z,10.30
2019-05-14T16:43:04.813Z,10.20
2019-05-14T16:45:35.034Z,10.10
2019-05-14T16:48:04.631Z,10.00
2019-05-14T16:50:34.853Z,10.10
2019-05-14T16:53:04.244Z,10.30
2019-05-14T16:55:33.657Z,10.50
2019-05-14T16:58:03.055Z,10.60
2019-05-14T17:00:34.650Z,10.70
2019-05-14T17:03:04.146Z,10.70
2019-05-14T17:05:33.585Z,10.60
2019-05-14T17:08:03.027Z,10.70
2019-05-14T17:10:32.764Z,10.60
2019-05-14T17:13:02.156Z,10.50
2019-05-14T17:15:32.869Z,10.30
2019-05-14T17:18:02.297Z,10.10
2019-05-14T17:20:32.048Z,9.90
2019-05-14T17:23:01.613Z,9.70
2019-05-14T17:25:31.057Z,9.50
2019-05-14T17:28:00.437Z,9.40
2019-05-14T17:30:29.846Z,9.40
2019-05-14T17:32:59.532Z,9.30
2019-05-14T17:35:30.074Z,9.20
2019-05-14T17:37:59.761Z,9.10
2019-05-14T17:40:31.439Z,9.10
2019-05-14T17:43:00.882Z,9.20
2019-05-14T17:45:30.275Z,9.30
2019-05-14T17:47:59.682Z,9.30
2019-05-14T17:50:29.436Z,9.30
2019-05-14T17:53:00.294Z,9.20
2019-05-14T17:55:43.684Z,9.10
2019-05-14T17:58:01.986Z,9.20
2019-05-14T18:00:31.661Z,9.20
2019-05-14T18:03:02.211Z,9.20
2019-05-14T18:05:32.419Z,9.20
2019-05-14T18:08:03.902Z,9.10
2019-05-14T18:10:34.330Z,9.10
2019-05-14T18:13:04.251Z,9.10
2019-05-14T18:15:34.700Z,9.00
2019-05-14T18:18:04.151Z,8.90
2019-05-14T18:20:34.265Z,8.80
2019-05-14T18:23:05.103Z,8.70
2019-05-14T18:25:34.557Z,8.70
2019-05-14T18:28:09.063Z,8.60
2019-05-14T18:30:38.723Z,8.50
2019-05-14T18:33:09.037Z,8.50
2019-05-14T18:35:45.203Z,8.50
2019-05-14T18:38:10.076Z,8.30
2019-05-14T18:40:41.180Z,8.10
2019-05-14T18:43:10.584Z,8.00
2019-05-14T18:45:40.288Z,8.00
2019-05-14T18:48:09.688Z,8.00
2019-05-14T18:50:39.106Z,7.90
2019-05-14T18:53:09.919Z,7.80
2019-05-14T18:55:39.784Z,7.80
2019-05-14T18:58:10.667Z,7.70
2019-05-14T19:00:40.333Z,7.70
2019-05-14T19:03:09.920Z,7.70
2019-05-14T19:05:39.687Z,7.70
2019-05-14T19:08:10.412Z,7.60
2019-05-14T19:10:40.395Z,7.60
2019-05-14T19:13:13.195Z,7.50
2019-05-14T19:15:44.428Z,7.50
2019-05-14T19:18:14.557Z,7.40
2019-05-14T19:20:44.863Z,7.40
2019-05-14T19:23:15.201Z,7.40
2019-05-14T19:25:44.904Z,7.40
2019-05-14T19:28:15.630Z,7.40
2019-05-14T19:30:45.480Z,7.30
2019-05-14T19:33:20.472Z,7.30
2019-05-14T19:35:48.603Z,7.30
2019-05-14T19:38:18.193Z,7.20
2019-05-14T19:40:48.419Z,7.10
2019-05-14T19:43:19.100Z,7.00
2019-05-14T19:45:48.724Z,7.00
2019-05-14T19:48:19.526Z,6.90
2019-05-14T19:50:49.802Z,6.90
2019-05-14T19:53:19.617Z,6.80
2019-05-14T19:55:49.257Z,6.70
2019-05-14T19:58:20.455Z,6.70
2019-05-14T20:00:50.941Z,6.70
2019-05-14T20:03:22.092Z,6.70
2019-05-14T20:05:51.528Z,6.60
2019-05-14T20:08:21.626Z,6.60
2019-05-14T20:10:51.237Z,6.70
2019-05-14T20:13:20.710Z,6.60
2019-05-14T20:15:50.217Z,6.60
2019-05-14T20:18:19.833Z,6.60
2019-05-14T20:20:49.433Z,6.50
2019-05-14T20:23:18.801Z,6.60
2019-05-14T20:25:49.780Z,6.60
2019-05-14T20:28:20.222Z,6.70
2019-05-14T20:30:51.945Z,6.60
2019-05-14T20:33:22.788Z,6.60
2019-05-14T20:35:52.938Z,6.60
2019-05-14T20:38:23.731Z,6.60
2019-05-14T20:40:54.304Z,6.60
2019-05-14T20:43:23.841Z,6.60
2019-05-14T20:45:54.243Z,6.50
2019-05-14T20:48:24.676Z,6.50
2019-05-14T20:50:54.325Z,6.50
2019-05-14T20:53:24.243Z,6.50
2019-05-14T20:55:54.802Z,6.60
2019-05-14T20:58:27.808Z,6.60
2019-05-14T21:00:56.885Z,6.60
2019-05-14T21:03:28.913Z,6.60
2019-05-14T21:05:58.323Z,6.60
2019-05-14T21:08:28.995Z,6.60
2019-05-14T21:10:58.852Z,6.60
2019-05-14T21:13:28.597Z,6.60
2019-05-14T21:15:58.078Z,6.60
2019-05-14T21:18:35.019Z,6.60
2019-05-14T21:20:59.377Z,6.50
2019-05-14T21:23:29.979Z,6.50
2019-05-14T21:25:59.451Z,6.40
2019-05-14T21:28:30.132Z,6.40
2019-05-14T21:31:00.544Z,6.30
2019-05-14T21:33:30.917Z,6.20
2019-05-14T21:36:01.144Z,6.20
2019-05-14T21:38:32.439Z,6.10
2019-05-14T21:41:02.422Z,6.10
2019-05-14T21:43:32.614Z,6.10
2019-05-14T21:46:02.530Z,6.00
2019-05-14T21:48:32.749Z,6.00
2019-05-14T21:51:02.606Z,6.00
2019-05-14T21:53:32.128Z,6.00
2019-05-14T21:56:01.485Z,6.00
2019-05-14T21:58:30.959Z,6.00
2019-05-14T22:01:02.729Z,6.00
2019-05-14T22:03:32.165Z,6.00
2019-05-14T22:06:01.578Z,6.10
2019-05-14T22:08:30.944Z,6.10
2019-05-14T22:11:01.013Z,6.20
2019-05-14T22:13:30.400Z,6.10
2019-05-14T22:16:00.052Z,6.10
2019-05-14T22:18:29.461Z,6.10
2019-05-14T22:20:58.840Z,6.20
2019-05-14T22:23:29.171Z,6.20
2019-05-14T22:25:59.521Z,6.20
2019-05-14T22:28:28.925Z,6.30
2019-05-14T22:30:58.742Z,6.30
2019-05-14T22:33:28.603Z,6.30
2019-05-14T22:35:58.212Z,6.20
2019-05-14T22:38:29.391Z,6.30
2019-05-14T22:40:59.215Z,6.20
2019-05-14T22:43:29.562Z,6.30
2019-05-14T22:45:59.193Z,6.30
2019-05-14T22:48:30.083Z,6.40
2019-05-14T22:50:59.540Z,6.40
2019-05-14T22:53:30.396Z,6.50
2019-05-14T22:56:00.802Z,6.50
2019-05-14T22:58:30.726Z,6.40
2019-05-14T23:01:13.949Z,6.40
2019-05-14T23:03:32.939Z,6.40
2019-05-14T23:06:04.261Z,6.50
2019-05-14T23:08:33.640Z,6.50
2019-05-14T23:11:03.184Z,6.40
2019-05-14T23:13:32.563Z,6.40
2019-05-14T23:16:01.933Z,6.40
2019-05-14T23:18:31.339Z,6.40
2019-05-14T23:21:00.722Z,6.40
2019-05-14T23:23:30.099Z,6.40
2019-05-14T23:26:00.169Z,6.40
2019-05-14T23:28:41.858Z,6.40
2019-05-14T23:31:02.259Z,6.50
2019-05-14T23:33:31.784Z,6.40
2019-05-14T23:36:01.859Z,6.40
2019-05-14T23:38:32.127Z,6.40
2019-05-14T23:41:01.892Z,6.40
2019-05-14T23:43:31.329Z,6.40
2019-05-14T23:46:00.701Z,6.50
2019-05-14T23:48:30.973Z,6.50
2019-05-14T23:51:00.986Z,6.60
2019-05-14T23:53:30.821Z,6.50
2019-05-14T23:56:01.900Z,6.60
2019-05-14T23:58:31.793Z,6.60
